createdAt,value
2023-04-02T00:00:28.149Z,961.39
2023-04-02T00:01:28.132Z,961.47
2023-04-02T00:02:28.231Z,961.46
2023-04-02T00:03:28.129Z,961.46
2023-04-02T00:04:28.106Z,961.51
2023-04-02T00:05:28.066Z,961.48
2023-04-02T00:06:28.039Z,961.53
2023-04-02T00:07:28.329Z,961.51
2023-04-02T00:08:28.000Z,961.53
2023-04-02T00:09:28.007Z,961.52
2023-04-02T00:10:27.977Z,961.57
2023-04-02T00:11:27.951Z,961.47
2023-04-02T00:12:27.922Z,961.68
2023-04-02T00:13:27.905Z,961.66
2023-04-02T00:14:27.913Z,961.71
2023-04-02T00:15:27.865Z,961.75
2023-04-02T00:16:27.878Z,961.69
2023-04-02T00:17:27.832Z,961.79
2023-04-02T00:18:27.952Z,961.76
2023-04-02T00:19:27.812Z,961.83
2023-04-02T00:20:27.785Z,961.73
2023-04-02T00:21:27.749Z,961.78
2023-04-02T00:22:27.730Z,961.85
2023-04-02T00:23:27.707Z,961.77
2023-04-02T00:24:27.729Z,961.84
2023-04-02T00:25:27.677Z,961.87
2023-04-02T00:26:27.659Z,961.90
2023-04-02T00:27:27.636Z,961.89
2023-04-02T00:28:27.615Z,961.88
2023-04-02T00:29:27.633Z,961.93
2023-04-02T00:30:27.586Z,961.93
2023-04-02T00:31:27.605Z,961.91
2023-04-02T00:32:27.618Z,961.92
2023-04-02T00:33:27.524Z,961.98
2023-04-02T00:34:27.535Z,962.02
2023-04-02T00:35:27.493Z,961.94
2023-04-02T00:36:27.468Z,962.02
2023-04-02T00:37:27.460Z,961.98
2023-04-02T00:38:27.436Z,962.02
2023-04-02T00:39:27.463Z,962.02
2023-04-02T00:40:27.384Z,962.08
2023-04-02T00:41:27.374Z,962.02
2023-04-02T00:42:27.349Z,962.09
2023-04-02T00:43:27.330Z,962.09
2023-04-02T00:44:27.345Z,962.08
2023-04-02T00:45:27.311Z,962.15
2023-04-02T00:46:27.375Z,962.11
2023-04-02T00:47:27.290Z,962.15
2023-04-02T00:48:27.237Z,962.20
2023-04-02T00:49:27.252Z,962.18
2023-04-02T00:50:27.208Z,962.16
2023-04-02T00:51:27.189Z,962.22
2023-04-02T00:52:27.162Z,962.25
2023-04-02T00:53:27.172Z,962.26
2023-04-02T00:54:27.157Z,962.28
2023-04-02T00:55:27.117Z,962.25
2023-04-02T00:56:27.103Z,962.27
2023-04-02T00:57:27.117Z,962.33
2023-04-02T00:58:27.049Z,962.33
2023-04-02T00:59:27.069Z,962.32
2023-04-02T01:00:27.015Z,962.47
2023-04-02T01:01:27.104Z,962.42
2023-04-02T01:02:27.078Z,962.44
2023-04-02T01:03:26.997Z,962.43
2023-04-02T01:04:27.975Z,962.47
2023-04-02T01:05:26.913Z,962.47
2023-04-02T01:06:26.905Z,962.48
2023-04-02T01:07:26.878Z,962.52
2023-04-02T01:08:26.860Z,962.58
2023-04-02T01:09:26.874Z,962.58
2023-04-02T01:10:26.838Z,962.55
2023-04-02T01:11:26.804Z,962.61
2023-04-02T01:12:26.787Z,962.58
2023-04-02T01:13:26.770Z,962.58
2023-04-02T01:14:26.783Z,962.61
2023-04-02T01:15:26.732Z,962.64
2023-04-02T01:16:26.822Z,962.77
2023-04-02T01:17:26.717Z,962.77
2023-04-02T01:18:26.752Z,962.75
2023-04-02T01:19:26.685Z,962.79
2023-04-02T01:20:26.638Z,962.76
2023-04-02T01:21:26.618Z,962.72
2023-04-02T01:22:26.599Z,962.73
2023-04-02T01:23:26.580Z,962.74
2023-04-02T01:24:26.588Z,962.77
2023-04-02T01:25:26.544Z,962.83
2023-04-02T01:26:26.518Z,962.82
2023-04-02T01:27:26.511Z,962.84
2023-04-02T01:28:26.483Z,962.92
2023-04-02T01:29:26.499Z,962.86
2023-04-02T01:30:26.448Z,962.90
2023-04-02T01:31:26.463Z,962.99
2023-04-02T01:32:26.491Z,962.96
2023-04-02T01:33:26.395Z,962.97
2023-04-02T01:34:26.766Z,963.01
2023-04-02T01:35:27.357Z,962.99
2023-04-02T01:36:26.342Z,963.00
2023-04-02T01:37:26.323Z,963.06
2023-04-02T01:38:26.299Z,963.03
2023-04-02T01:39:26.311Z,963.11
2023-04-02T01:40:26.261Z,963.11
2023-04-02T01:41:26.250Z,963.09
2023-04-02T01:42:26.236Z,963.18
2023-04-02T01:43:26.207Z,963.14
2023-04-02T01:44:26.192Z,963.18
2023-04-02T01:45:26.196Z,963.29
2023-04-02T01:46:26.213Z,963.18
2023-04-02T01:47:26.162Z,963.36
2023-04-02T01:48:26.109Z,963.36
2023-04-02T01:49:26.093Z,963.28
2023-04-02T01:50:26.111Z,963.34
2023-04-02T01:51:26.057Z,963.41
2023-04-02T01:52:26.034Z,963.37
2023-04-02T01:53:26.019Z,963.31
2023-04-02T01:54:26.004Z,963.45
2023-04-02T01:55:26.007Z,963.46
2023-04-02T01:56:25.964Z,963.46
2023-04-02T01:57:25.977Z,963.49
2023-04-02T01:58:25.927Z,963.50
2023-04-02T01:59:25.905Z,963.51
2023-04-02T02:00:25.918Z,963.59
2023-04-02T02:01:25.911Z,963.52
2023-04-02T02:02:25.916Z,963.53
2023-04-02T02:03:25.838Z,963.58
2023-04-02T02:04:25.812Z,963.65
2023-04-02T02:05:25.828Z,963.72
2023-04-02T02:06:25.788Z,963.67
2023-04-02T02:07:25.764Z,963.59
2023-04-02T02:08:25.739Z,963.69
2023-04-02T02:09:25.718Z,963.69
2023-04-02T02:10:25.729Z,963.66
2023-04-02T02:11:25.684Z,963.75
2023-04-02T02:12:25.660Z,963.71
2023-04-02T02:13:25.672Z,963.74
2023-04-02T02:14:25.678Z,963.80
2023-04-02T02:15:25.778Z,963.80
2023-04-02T02:16:25.640Z,963.80
2023-04-02T02:17:25.654Z,963.81
2023-04-02T02:18:25.550Z,963.84
2023-04-02T02:19:25.537Z,963.81
2023-04-02T02:20:25.539Z,963.78
2023-04-02T02:21:25.551Z,963.87
2023-04-02T02:22:25.484Z,963.86
2023-04-02T02:23:25.476Z,963.92
2023-04-02T02:24:25.442Z,963.98
2023-04-02T02:25:25.449Z,963.96
2023-04-02T02:26:25.427Z,963.98
2023-04-02T02:27:25.393Z,964.00
2023-04-02T02:28:25.365Z,963.94
2023-04-02T02:29:25.346Z,963.98
2023-04-02T02:30:25.366Z,964.24
2023-04-02T02:31:25.327Z,964.17
2023-04-02T02:32:25.372Z,964.07
2023-04-02T02:33:25.274Z,964.16
2023-04-02T02:34:25.258Z,964.13
2023-04-02T02:35:25.265Z,964.20
2023-04-02T02:36:25.307Z,964.17
2023-04-02T02:37:25.194Z,964.24
2023-04-02T02:38:25.178Z,964.16
2023-04-02T02:39:25.158Z,964.25
2023-04-02T02:40:25.169Z,964.23
2023-04-02T02:41:25.121Z,964.26
2023-04-02T02:42:25.107Z,964.33
2023-04-02T02:43:25.094Z,964.33
2023-04-02T02:44:25.070Z,964.31
2023-04-02T02:45:25.079Z,964.31
2023-04-02T02:46:25.085Z,964.34
2023-04-02T02:47:25.037Z,964.37
2023-04-02T02:48:24.992Z,964.39
2023-04-02T02:49:24.973Z,964.41
2023-04-02T02:50:24.982Z,964.45
2023-04-02T02:51:24.941Z,964.49
2023-04-02T02:52:24.916Z,964.51
2023-04-02T02:53:24.899Z,964.51
2023-04-02T02:54:24.875Z,964.48
2023-04-02T02:55:24.893Z,964.58
2023-04-02T02:56:24.837Z,964.58
2023-04-02T02:57:24.866Z,964.47
2023-04-02T02:58:24.805Z,964.59
2023-04-02T02:59:24.807Z,964.59
2023-04-02T03:00:24.799Z,964.63
2023-04-02T03:01:24.782Z,964.70
2023-04-02T03:02:24.804Z,964.73
2023-04-02T03:03:24.840Z,964.68
2023-04-02T03:04:24.872Z,964.76
2023-04-02T03:05:24.706Z,964.75
2023-04-02T03:06:24.645Z,964.77
2023-04-02T03:07:24.645Z,964.79
2023-04-02T03:08:24.626Z,964.80
2023-04-02T03:09:24.598Z,964.80
2023-04-02T03:10:24.604Z,964.75
2023-04-02T03:11:24.558Z,964.86
2023-04-02T03:12:24.542Z,964.84
2023-04-02T03:13:24.520Z,964.88
2023-04-02T03:14:24.507Z,964.86
2023-04-02T03:15:24.528Z,964.92
2023-04-02T03:16:24.492Z,964.92
2023-04-02T03:17:24.540Z,965.00
2023-04-02T03:18:24.418Z,964.96
2023-04-02T03:19:25.415Z,965.03
2023-04-02T03:20:24.424Z,965.02
2023-04-02T03:21:24.384Z,964.99
2023-04-02T03:22:24.355Z,965.05
2023-04-02T03:23:24.340Z,965.10
2023-04-02T03:24:24.316Z,965.04
2023-04-02T03:25:24.328Z,965.15
2023-04-02T03:26:24.293Z,965.13
2023-04-02T03:27:24.282Z,965.20
2023-04-02T03:28:24.246Z,965.23
2023-04-02T03:29:24.227Z,965.28
2023-04-02T03:30:24.251Z,965.29
2023-04-02T03:31:24.236Z,965.25
2023-04-02T03:32:24.169Z,965.29
2023-04-02T03:33:24.160Z,965.32
2023-04-02T03:34:24.139Z,965.40
2023-04-02T03:35:24.144Z,965.32
2023-04-02T03:36:24.133Z,965.33
2023-04-02T03:37:24.082Z,965.39
2023-04-02T03:38:24.069Z,965.46
2023-04-02T03:39:24.043Z,965.36
2023-04-02T03:40:24.052Z,965.38
2023-04-02T03:41:24.007Z,965.41
2023-04-02T03:42:23.982Z,965.36
2023-04-02T03:43:23.964Z,965.41
2023-04-02T03:44:23.954Z,965.46
2023-04-02T03:45:23.960Z,965.45
2023-04-02T03:46:23.967Z,965.51
2023-04-02T03:47:23.908Z,965.56
2023-04-02T03:48:23.890Z,965.53
2023-04-02T03:49:23.876Z,965.65
2023-04-02T03:50:23.914Z,965.62
2023-04-02T03:51:23.847Z,965.66
2023-04-02T03:52:23.811Z,965.67
2023-04-02T03:53:23.810Z,965.61
2023-04-02T03:54:23.769Z,965.60
2023-04-02T03:55:23.773Z,965.62
2023-04-02T03:56:23.728Z,965.67
2023-04-02T03:57:23.753Z,965.71
2023-04-02T03:58:23.695Z,965.70
2023-04-02T03:59:23.672Z,965.74
2023-04-02T04:00:23.687Z,965.71
2023-04-02T04:01:23.633Z,965.71
2023-04-02T04:02:23.659Z,965.69
2023-04-02T04:03:23.595Z,965.76
2023-04-02T04:04:23.618Z,965.70
2023-04-02T04:05:23.588Z,965.76
2023-04-02T04:06:23.541Z,965.81
2023-04-02T04:07:23.518Z,965.88
2023-04-02T04:08:23.503Z,965.87
2023-04-02T04:09:23.484Z,965.96
2023-04-02T04:10:23.498Z,965.90
2023-04-02T04:11:23.492Z,966.07
2023-04-02T04:12:23.432Z,965.95
2023-04-02T04:13:23.411Z,965.99
2023-04-02T04:14:23.399Z,966.07
2023-04-02T04:15:23.409Z,966.02
2023-04-02T04:16:23.365Z,966.02
2023-04-02T04:17:23.339Z,966.06
2023-04-02T04:18:23.323Z,966.11
2023-04-02T04:19:23.308Z,966.17
2023-04-02T04:20:23.310Z,966.13
2023-04-02T04:21:23.284Z,966.15
2023-04-02T04:22:23.249Z,966.05
2023-04-02T04:23:23.231Z,966.19
2023-04-02T04:24:23.219Z,966.28
2023-04-02T04:25:23.219Z,966.25
2023-04-02T04:26:23.180Z,966.19
2023-04-02T04:27:23.160Z,966.30
2023-04-02T04:28:23.143Z,966.26
2023-04-02T04:29:23.129Z,966.36
2023-04-02T04:30:23.120Z,966.29
2023-04-02T04:31:25.292Z,966.35
2023-04-02T04:32:23.067Z,966.37
2023-04-02T04:33:23.121Z,966.35
2023-04-02T04:34:23.033Z,966.43
2023-04-02T04:35:23.052Z,966.45
2023-04-02T04:36:22.992Z,966.44
2023-04-02T04:37:22.995Z,966.46
2023-04-02T04:38:22.960Z,966.54
2023-04-02T04:39:22.932Z,966.49
2023-04-02T04:40:23.952Z,966.57
2023-04-02T04:41:22.906Z,966.58
2023-04-02T04:42:22.892Z,966.58
2023-04-02T04:43:22.877Z,966.66
2023-04-02T04:44:22.856Z,966.61
2023-04-02T04:45:22.863Z,966.61
2023-04-02T04:46:22.879Z,966.64
2023-04-02T04:47:22.816Z,966.70
2023-04-02T04:48:22.772Z,966.75
2023-04-02T04:49:22.796Z,966.70
2023-04-02T04:50:22.766Z,966.76
2023-04-02T04:51:23.017Z,966.91
2023-04-02T04:52:22.715Z,966.87
2023-04-02T04:53:22.684Z,966.89
2023-04-02T04:54:22.672Z,966.89
2023-04-02T04:55:22.675Z,966.90
2023-04-02T04:56:22.652Z,967.03
2023-04-02T04:57:22.735Z,966.98
2023-04-02T04:58:22.800Z,967.01
2023-04-02T04:59:22.578Z,967.02
2023-04-02T05:00:22.606Z,966.99
2023-04-02T05:01:22.604Z,967.06
2023-04-02T05:02:22.556Z,967.18
2023-04-02T05:03:22.513Z,967.20
2023-04-02T05:04:22.516Z,967.16
2023-04-02T05:05:22.502Z,967.19
2023-04-02T05:06:22.445Z,967.23
2023-04-02T05:07:22.424Z,967.21
2023-04-02T05:08:22.405Z,967.30
2023-04-02T05:09:22.396Z,967.25
2023-04-02T05:10:22.411Z,967.28
2023-04-02T05:11:22.385Z,967.27
2023-04-02T05:12:22.333Z,967.40
2023-04-02T05:13:22.320Z,967.25
2023-04-02T05:14:22.299Z,967.32
2023-04-02T05:15:22.284Z,967.34
2023-04-02T05:16:22.307Z,967.38
2023-04-02T05:17:22.259Z,967.34
2023-04-02T05:18:22.234Z,967.39
2023-04-02T05:19:22.211Z,967.46
2023-04-02T05:20:22.193Z,967.37
2023-04-02T05:21:22.212Z,967.45
2023-04-02T05:22:22.167Z,967.40
2023-04-02T05:23:22.136Z,967.45
2023-04-02T05:24:22.125Z,967.48
2023-04-02T05:25:22.117Z,967.46
2023-04-02T05:26:22.109Z,967.59
2023-04-02T05:27:22.063Z,967.51
2023-04-02T05:28:22.051Z,967.59
2023-04-02T05:29:22.038Z,967.66
2023-04-02T05:30:22.019Z,967.63
2023-04-02T05:31:22.047Z,967.78
2023-04-02T05:32:21.976Z,967.76
2023-04-02T05:33:21.956Z,967.78
2023-04-02T05:34:21.940Z,967.69
2023-04-02T05:35:21.921Z,967.73
2023-04-02T05:36:21.948Z,967.64
2023-04-02T05:37:21.917Z,967.77
2023-04-02T05:38:21.906Z,967.85
2023-04-02T05:39:21.848Z,967.82
2023-04-02T05:40:22.363Z,967.87
2023-04-02T05:41:21.842Z,967.89
2023-04-02T05:42:21.940Z,967.90
2023-04-02T05:43:21.783Z,967.90
2023-04-02T05:44:21.758Z,967.91
2023-04-02T05:45:21.798Z,967.97
2023-04-02T05:46:21.788Z,967.97
2023-04-02T05:47:21.751Z,968.15
2023-04-02T05:48:21.690Z,968.09
2023-04-02T05:49:21.662Z,968.15
2023-04-02T05:50:21.647Z,968.09
2023-04-02T05:51:21.657Z,968.14
2023-04-02T05:52:21.611Z,968.17
2023-04-02T05:53:21.587Z,968.15
2023-04-02T05:54:21.585Z,968.11
2023-04-02T05:55:21.570Z,968.22
2023-04-02T05:56:21.578Z,968.22
2023-04-02T05:57:24.943Z,968.25
2023-04-02T05:58:35.471Z,968.22
2023-04-02T05:59:23.508Z,968.25
2023-04-02T06:00:21.487Z,968.31
2023-04-02T06:01:21.495Z,968.28
2023-04-02T06:02:21.447Z,968.40
2023-04-02T06:03:21.431Z,968.28
2023-04-02T06:04:21.391Z,968.39
2023-04-02T06:05:21.372Z,968.43
2023-04-02T06:06:21.384Z,968.43
2023-04-02T06:07:21.333Z,968.43
2023-04-02T06:08:21.318Z,968.43
2023-04-02T06:09:21.295Z,968.52
2023-04-02T06:10:22.802Z,968.52
2023-04-02T06:11:21.288Z,968.58
2023-04-02T06:12:21.237Z,968.61
2023-04-02T06:13:21.221Z,968.63
2023-04-02T06:14:21.205Z,968.59
2023-04-02T06:15:21.194Z,968.57
2023-04-02T06:16:21.215Z,968.53
2023-04-02T06:17:21.156Z,968.59
2023-04-02T06:18:21.147Z,968.55
2023-04-02T06:19:21.113Z,968.64
2023-04-02T06:20:21.093Z,968.65
2023-04-02T06:21:21.106Z,968.64
2023-04-02T06:22:21.048Z,968.67
2023-04-02T06:23:21.035Z,968.69
2023-04-02T06:24:21.049Z,968.77
2023-04-02T06:25:21.003Z,968.81
2023-04-02T06:26:21.015Z,968.85
2023-04-02T06:27:20.969Z,968.77
2023-04-02T06:28:20.946Z,968.87
2023-04-02T06:29:20.935Z,968.81
2023-04-02T06:30:20.922Z,968.91
2023-04-02T06:31:21.029Z,968.95
2023-04-02T06:32:20.890Z,968.98
2023-04-02T06:33:20.850Z,968.95
2023-04-02T06:34:20.837Z,969.06
2023-04-02T06:35:20.814Z,968.97
2023-04-02T06:36:20.908Z,969.14
2023-04-02T06:37:21.768Z,969.15
2023-04-02T06:38:20.758Z,969.11
2023-04-02T06:39:20.750Z,969.15
2023-04-02T06:40:20.727Z,969.07
2023-04-02T06:41:20.742Z,969.17
2023-04-02T06:42:20.692Z,969.21
2023-04-02T06:43:20.669Z,969.22
2023-04-02T06:44:20.650Z,969.25
2023-04-02T06:45:20.632Z,969.26
2023-04-02T06:46:20.697Z,969.29
2023-04-02T06:47:20.595Z,969.35
2023-04-02T06:48:20.587Z,969.28
2023-04-02T06:49:20.562Z,969.38
2023-04-02T06:50:20.553Z,969.40
2023-04-02T06:51:20.561Z,969.35
2023-04-02T06:52:20.508Z,969.48
2023-04-02T06:53:20.492Z,969.43
2023-04-02T06:54:20.475Z,969.49
2023-04-02T06:55:20.490Z,969.51
2023-04-02T06:56:20.481Z,969.51
2023-04-02T06:57:20.435Z,969.55
2023-04-02T06:58:20.390Z,969.58
2023-04-02T06:59:20.388Z,969.60
2023-04-02T07:00:20.385Z,969.64
2023-04-02T07:01:20.406Z,969.62
2023-04-02T07:02:20.323Z,969.70
2023-04-02T07:03:20.313Z,969.77
2023-04-02T07:04:20.318Z,969.74
2023-04-02T07:05:20.260Z,969.73
2023-04-02T07:06:20.292Z,969.79
2023-04-02T07:07:20.240Z,969.80
2023-04-02T07:08:20.205Z,969.78
2023-04-02T07:09:20.197Z,969.87
2023-04-02T07:10:20.276Z,969.82
2023-04-02T07:11:20.884Z,969.86
2023-04-02T07:12:21.141Z,969.89
2023-04-02T07:13:20.130Z,969.89
2023-04-02T07:14:20.108Z,969.90
2023-04-02T07:15:20.203Z,969.97
2023-04-02T07:16:20.118Z,970.06
2023-04-02T07:17:20.051Z,969.98
2023-04-02T07:18:20.024Z,970.02
2023-04-02T07:19:20.041Z,970.05
2023-04-02T07:20:19.990Z,970.01
2023-04-02T07:21:20.004Z,970.08
2023-04-02T07:22:19.961Z,970.14
2023-04-02T07:23:19.936Z,970.11
2023-04-02T07:24:19.966Z,970.15
2023-04-02T07:25:19.896Z,970.10
2023-04-02T07:26:19.908Z,970.13
2023-04-02T07:27:19.860Z,970.30
2023-04-02T07:28:21.955Z,970.14
2023-04-02T07:29:19.871Z,970.11
2023-04-02T07:30:19.815Z,970.24
2023-04-02T07:31:19.894Z,970.31
2023-04-02T07:32:19.779Z,970.33
2023-04-02T07:33:19.759Z,970.31
2023-04-02T07:34:19.911Z,970.41
2023-04-02T07:35:19.748Z,970.31
2023-04-02T07:36:19.772Z,970.25
2023-04-02T07:37:19.689Z,970.31
2023-04-02T07:38:19.669Z,970.33
2023-04-02T07:39:19.674Z,970.29
2023-04-02T07:40:19.627Z,970.36
2023-04-02T07:41:19.690Z,970.37
2023-04-02T07:42:19.597Z,970.43
2023-04-02T07:43:19.573Z,970.48
2023-04-02T07:44:19.550Z,970.38
2023-04-02T07:45:19.541Z,970.59
2023-04-02T07:46:19.531Z,970.58
2023-04-02T07:47:19.527Z,970.48
2023-04-02T07:48:19.476Z,970.61
2023-04-02T07:49:19.457Z,970.60
2023-04-02T07:50:19.455Z,970.57
2023-04-02T07:51:19.419Z,970.57
2023-04-02T07:52:19.434Z,970.64
2023-04-02T07:53:19.381Z,970.68
2023-04-02T07:54:19.379Z,970.64
2023-04-02T07:55:19.345Z,970.63
2023-04-02T07:56:19.328Z,970.75
2023-04-02T07:57:19.340Z,970.75
2023-04-02T07:58:19.288Z,970.94
2023-04-02T07:59:19.266Z,970.77
2023-04-02T08:00:19.266Z,970.77
2023-04-02T08:01:19.230Z,970.85
2023-04-02T08:02:19.333Z,970.86
2023-04-02T08:03:19.299Z,970.82
2023-04-02T08:04:19.378Z,970.86
2023-04-02T08:05:19.154Z,970.88
2023-04-02T08:06:19.140Z,970.91
2023-04-02T08:07:19.144Z,970.90
2023-04-02T08:08:19.099Z,970.97
2023-04-02T08:09:19.141Z,970.99
2023-04-02T08:10:19.062Z,971.01
2023-04-02T08:11:19.047Z,971.01
2023-04-02T08:12:19.063Z,971.09
2023-04-02T08:13:19.023Z,971.11
2023-04-02T08:14:18.987Z,971.06
2023-04-02T08:15:18.998Z,971.05
2023-04-02T08:16:19.014Z,971.22
2023-04-02T08:17:18.969Z,971.13
2023-04-02T08:18:18.926Z,971.21
2023-04-02T08:19:18.905Z,971.24
2023-04-02T08:20:18.910Z,971.21
2023-04-02T08:21:18.883Z,971.23
2023-04-02T08:22:18.896Z,971.27
2023-04-02T08:23:18.830Z,971.28
2023-04-02T08:24:18.807Z,971.37
2023-04-02T08:25:18.794Z,971.33
2023-04-02T08:26:18.895Z,971.31
2023-04-02T08:27:18.777Z,971.37
2023-04-02T08:28:18.747Z,971.39
2023-04-02T08:29:18.729Z,971.38
2023-04-02T08:30:18.704Z,971.45
2023-04-02T08:31:18.700Z,971.47
2023-04-02T08:32:18.714Z,971.48
2023-04-02T08:33:18.655Z,971.49
2023-04-02T08:34:18.626Z,971.54
2023-04-02T08:35:18.612Z,971.48
2023-04-02T08:36:18.631Z,971.44
2023-04-02T08:37:18.613Z,971.51
2023-04-02T08:38:18.580Z,971.53
2023-04-02T08:39:18.528Z,971.47
2023-04-02T08:40:18.544Z,971.54
2023-04-02T08:41:18.504Z,971.50
2023-04-02T08:42:18.500Z,971.57
2023-04-02T08:43:18.459Z,971.54
2023-04-02T08:44:18.433Z,971.51
2023-04-02T08:45:25.081Z,971.61
2023-04-02T08:46:20.413Z,971.55
2023-04-02T08:47:18.435Z,971.60
2023-04-02T08:48:18.365Z,971.54
2023-04-02T08:49:18.334Z,971.64
2023-04-02T08:50:18.355Z,971.62
2023-04-02T08:51:18.319Z,971.55
2023-04-02T08:52:18.311Z,971.45
2023-04-02T08:53:18.268Z,971.72
2023-04-02T08:54:18.247Z,971.75
2023-04-02T08:55:18.244Z,971.77
2023-04-02T08:56:18.213Z,971.82
2023-04-02T08:57:18.245Z,971.77
2023-04-02T08:58:18.174Z,971.76
2023-04-02T08:59:18.156Z,971.81
2023-04-02T09:00:18.161Z,971.80
2023-04-02T09:01:18.169Z,971.79
2023-04-02T09:02:18.138Z,971.87
2023-04-02T09:03:18.075Z,971.94
2023-04-02T09:04:18.136Z,971.87
2023-04-02T09:05:18.048Z,971.92
2023-04-02T09:06:18.076Z,971.92
2023-04-02T09:07:18.033Z,971.95
2023-04-02T09:08:17.994Z,971.95
2023-04-02T09:09:17.973Z,971.98
2023-04-02T09:10:17.949Z,972.00
2023-04-02T09:11:17.932Z,971.95
2023-04-02T09:12:17.979Z,972.00
2023-04-02T09:13:17.893Z,972.02
2023-04-02T09:14:17.885Z,972.11
2023-04-02T09:15:17.870Z,972.12
2023-04-02T09:16:17.874Z,972.02
2023-04-02T09:17:17.849Z,972.06
2023-04-02T09:18:17.934Z,972.14
2023-04-02T09:19:17.790Z,972.21
2023-04-02T09:20:17.782Z,972.16
2023-04-02T09:21:17.747Z,972.28
2023-04-02T09:22:17.755Z,972.23
2023-04-02T09:23:17.720Z,972.28
2023-04-02T09:24:17.689Z,972.26
2023-04-02T09:25:17.683Z,972.18
2023-04-02T09:26:17.794Z,972.30
2023-04-02T09:27:18.677Z,972.42
2023-04-02T09:28:17.613Z,972.29
2023-04-02T09:29:17.617Z,972.46
2023-04-02T09:30:17.591Z,972.39
2023-04-02T09:31:17.661Z,972.48
2023-04-02T09:32:17.579Z,972.54
2023-04-02T09:33:17.530Z,972.52
2023-04-02T09:34:17.509Z,972.50
2023-04-02T09:35:25.990Z,972.41
2023-04-02T09:36:19.544Z,972.46
2023-04-02T09:37:17.493Z,972.62
2023-04-02T09:38:17.428Z,972.56
2023-04-02T09:39:17.421Z,972.48
2023-04-02T09:40:17.395Z,972.58
2023-04-02T09:41:17.372Z,972.56
2023-04-02T09:42:17.388Z,972.64
2023-04-02T09:43:17.349Z,972.57
2023-04-02T09:44:17.323Z,972.65
2023-04-02T09:45:17.307Z,972.58
2023-04-02T09:46:17.310Z,972.71
2023-04-02T09:47:17.296Z,972.70
2023-04-02T09:48:17.245Z,972.70
2023-04-02T09:49:17.234Z,972.80
2023-04-02T09:50:17.221Z,972.74
2023-04-02T09:51:17.193Z,972.72
2023-04-02T09:52:17.209Z,972.71
2023-04-02T09:53:17.164Z,972.80
2023-04-02T09:54:17.137Z,972.80
2023-04-02T09:55:17.122Z,972.79
2023-04-02T09:56:17.109Z,972.87
2023-04-02T09:57:17.157Z,972.83
2023-04-02T09:58:17.096Z,972.88
2023-04-02T09:59:17.048Z,972.83
2023-04-02T10:00:25.929Z,972.92
2023-04-02T10:01:19.036Z,972.96
2023-04-02T10:02:17.029Z,972.91
2023-04-02T10:03:16.975Z,973.06
2023-04-02T10:04:16.955Z,972.95
2023-04-02T10:05:23.699Z,972.97
2023-04-02T10:06:18.915Z,973.06
2023-04-02T10:07:16.939Z,973.05
2023-04-02T10:08:16.883Z,973.14
2023-04-02T10:09:16.858Z,973.03
2023-04-02T10:10:16.853Z,973.09
2023-04-02T10:11:16.823Z,973.08
2023-04-02T10:12:16.849Z,973.10
2023-04-02T10:13:16.799Z,973.18
2023-04-02T10:14:16.768Z,973.14
2023-04-02T10:15:16.766Z,973.20
2023-04-02T10:16:16.779Z,973.19
2023-04-02T10:17:16.833Z,973.28
2023-04-02T10:18:16.698Z,973.25
2023-04-02T10:19:16.865Z,973.28
2023-04-02T10:20:16.666Z,973.32
2023-04-02T10:21:16.650Z,973.37
2023-04-02T10:22:16.655Z,973.35
2023-04-02T10:23:16.615Z,973.31
2023-04-02T10:24:16.590Z,973.26
2023-04-02T10:25:16.568Z,973.37
2023-04-02T10:26:16.554Z,973.39
2023-04-02T10:27:16.571Z,973.45
2023-04-02T10:28:16.517Z,973.42
2023-04-02T10:29:16.512Z,973.44
2023-04-02T10:30:16.490Z,973.39
2023-04-02T10:31:16.481Z,973.42
2023-04-02T10:32:16.476Z,973.49
2023-04-02T10:33:16.426Z,973.50
2023-04-02T10:34:16.415Z,973.43
2023-04-02T10:35:16.399Z,973.54
2023-04-02T10:36:16.394Z,973.55
2023-04-02T10:37:16.358Z,973.70
2023-04-02T10:38:16.370Z,973.71
2023-04-02T10:39:16.330Z,973.55
2023-04-02T10:40:16.299Z,973.63
2023-04-02T10:41:16.279Z,973.65
2023-04-02T10:42:16.261Z,973.65
2023-04-02T10:43:16.294Z,973.61
2023-04-02T10:44:20.234Z,973.64
2023-04-02T10:45:17.220Z,973.70
2023-04-02T10:46:16.242Z,973.79
2023-04-02T10:47:16.168Z,973.77
2023-04-02T10:48:16.182Z,973.69
2023-04-02T10:49:16.160Z,973.73
2023-04-02T10:50:16.125Z,973.79
2023-04-02T10:51:16.103Z,973.68
2023-04-02T10:52:16.077Z,973.74
2023-04-02T10:53:16.086Z,973.72
2023-04-02T10:54:16.047Z,973.68
2023-04-02T10:55:16.029Z,973.75
2023-04-02T10:56:16.012Z,973.73
2023-04-02T10:57:16.010Z,973.72
2023-04-02T10:58:16.010Z,973.78
2023-04-02T10:59:15.955Z,973.75
2023-04-02T11:00:15.951Z,973.70
2023-04-02T11:01:15.940Z,973.75
2023-04-02T11:02:15.931Z,973.79
2023-04-02T11:03:16.041Z,973.84
2023-04-02T11:04:15.858Z,973.93
2023-04-02T11:05:15.849Z,973.95
2023-04-02T11:06:15.824Z,973.97
2023-04-02T11:07:15.799Z,973.88
2023-04-02T11:08:15.811Z,973.84
2023-04-02T11:09:15.769Z,973.90
2023-04-02T11:10:15.747Z,973.94
2023-04-02T11:11:15.750Z,973.93
2023-04-02T11:12:15.710Z,973.99
2023-04-02T11:13:15.718Z,974.07
2023-04-02T11:14:15.670Z,974.02
2023-04-02T11:15:15.678Z,974.03
2023-04-02T11:16:15.666Z,974.09
2023-04-02T11:17:15.614Z,974.00
2023-04-02T11:18:15.628Z,974.08
2023-04-02T11:19:15.623Z,974.17
2023-04-02T11:20:15.564Z,974.05
2023-04-02T11:21:15.541Z,974.05
2023-04-02T11:22:15.526Z,974.16
2023-04-02T11:23:15.542Z,974.10
2023-04-02T11:24:15.533Z,974.09
2023-04-02T11:25:15.474Z,974.14
2023-04-02T11:26:15.453Z,974.16
2023-04-02T11:27:15.451Z,974.21
2023-04-02T11:28:15.452Z,974.17
2023-04-02T11:29:15.399Z,974.23
2023-04-02T11:30:15.373Z,974.27
2023-04-02T11:31:15.389Z,974.32
2023-04-02T11:32:15.352Z,974.25
2023-04-02T11:33:18.668Z,974.14
2023-04-02T11:34:16.317Z,974.32
2023-04-02T11:35:15.287Z,974.24
2023-04-02T11:36:16.330Z,974.26
2023-04-02T11:37:15.256Z,974.30
2023-04-02T11:38:15.275Z,974.30
2023-04-02T11:39:17.765Z,974.36
2023-04-02T11:40:16.220Z,974.33
2023-04-02T11:41:15.195Z,974.33
2023-04-02T11:42:15.155Z,974.34
2023-04-02T11:43:15.166Z,974.26
2023-04-02T11:44:15.124Z,974.28
2023-04-02T11:45:15.098Z,974.31
2023-04-02T11:46:15.101Z,974.24
2023-04-02T11:47:15.070Z,974.30
2023-04-02T11:48:15.079Z,974.51
2023-04-02T11:49:16.058Z,974.42
2023-04-02T11:50:15.022Z,974.41
2023-04-02T11:51:15.011Z,974.49
2023-04-02T11:52:14.977Z,974.41
2023-04-02T11:53:15.003Z,974.40
2023-04-02T11:54:14.941Z,974.43
2023-04-02T11:55:14.931Z,974.46
2023-04-02T11:56:14.905Z,974.43
2023-04-02T11:57:14.931Z,974.46
2023-04-02T11:58:14.891Z,974.58
2023-04-02T11:59:14.842Z,974.53
2023-04-02T12:00:16.893Z,974.63
2023-04-02T12:01:14.851Z,974.66
2023-04-02T12:02:14.829Z,974.66
2023-04-02T12:03:14.847Z,974.66
2023-04-02T12:04:14.804Z,974.71
2023-04-02T12:05:14.797Z,974.66
2023-04-02T12:06:14.714Z,974.66
2023-04-02T12:07:14.690Z,974.70
2023-04-02T12:08:14.672Z,974.79
2023-04-02T12:09:14.694Z,974.77
2023-04-02T12:10:14.639Z,974.77
2023-04-02T12:11:14.622Z,974.75
2023-04-02T12:12:14.600Z,974.75
2023-04-02T12:13:14.609Z,974.82
2023-04-02T12:14:14.585Z,974.82
2023-04-02T12:15:14.537Z,974.92
2023-04-02T12:16:15.576Z,974.97
2023-04-02T12:17:14.592Z,974.94
2023-04-02T12:18:14.516Z,974.92
2023-04-02T12:19:14.468Z,974.99
2023-04-02T12:20:14.449Z,974.93
2023-04-02T12:21:14.436Z,975.00
2023-04-02T12:22:14.418Z,975.01
2023-04-02T12:23:14.423Z,975.00
2023-04-02T12:24:14.379Z,975.12
2023-04-02T12:25:14.358Z,975.06
2023-04-02T12:26:14.359Z,975.13
2023-04-02T12:27:14.385Z,975.09
2023-04-02T12:28:14.339Z,975.12